LSZA METAR and TAF | Updated Today

LSZA METAR

Lugano Airport

Observation time: 18 min. ago

LSZA 252020Z AUTO VRB01KT 9999 FEW100 17/15 Q1018

Need help? Read our tutorial on how to read METARs or read the parsed version below.

Lugano Airport (LSZA) METAR

  • Weather conditions on Wed, 25 May 2022 20:20:00 +0000 (18 min. ago):
  • Present conditions: Dry
  • Clouds: A few at 3048 meters
  • Visibility: Greater than 10 km
  • Wind: Variable at 1 knots
  • Temperature: 17 celsius
  • Dew point: 15 celsius
  • Pressure: 1018 millibars
  • Remarks: None


Useful to know...

LSZA TAF

Lugano Airport

TAF LSZA 251425Z 2515/2524 VRB02KT 9999 FEW040 BKN110 TEMPO 2515/2519 FEW040TCU
Observation time: 6:13 hr. ago
Need help? Read our tutorial on how to read TAFs or read the parsed version below.

Parsed version of TAF for Lugano Airport (LSZA)

  • From 25 May at 15:00 UTC, to day 25 of the month at 24:00 UTC
  • Clouds: A few at 1219 meters; broken sky at 3353 meters
  • Visibility: Greater than 10 km
  • Wind: Variable at 2
  • Expected to arise temporarily, from 25 May at 15:00 UTC, to day 25 of the month at 19:00 UTC
  • Clouds: A few at 1219 meters, towering cumulus